Time;durP1;ratioP1;P1;durP2;ratioP2;P2;SDS_P1;SDS_P2;PMS_P1;PMS_P2;Temp;Humidity;BMP_temperature;BMP_pressure;BME280_temperature;BME280_humidity;BME280_pressure;Samples;Min_cycle;Max_cycle;Signal;HPM_P1;HPM_P2
2024/02/13 00:01:23;;;;;;;7.82;3.35;;;;;;;30.82;63.04;101376.28;5038240;28;70721;-35
2024/02/13 00:03:54;;;;;;;4.13;3.83;;;;;;;30.80;63.19;101379.19;5039129;28;65916;-34
2024/02/13 00:06:24;;;;;;;3.58;3.38;;;;;;;30.82;63.56;101387.13;5036144;28;69355;-34
2024/02/13 00:08:55;;;;;;;6.93;3.50;;;;;;;30.78;63.13;101377.69;5038975;28;67796;-33
2024/02/13 00:11:28;;;;;;;8.98;3.80;;;;;;;30.82;63.09;101387.13;5038620;28;70282;-34
2024/02/13 00:13:59;;;;;;;4.05;3.75;;;;;;;30.80;63.46;101389.19;5037778;28;65473;-33
2024/02/13 00:16:29;;;;;;;4.53;4.22;;;;;;;30.80;63.59;101383.78;5036134;28;70096;-33
2024/02/13 00:19:01;;;;;;;8.05;3.83;;;;;;;30.79;63.35;101387.50;5039235;28;66703;-34
2024/02/13 00:21:33;;;;;;;3.70;3.40;;;;;;;30.79;63.44;101382.91;5037465;28;70105;-33
2024/02/13 00:24:03;;;;;;;3.90;3.67;;;;;;;30.79;63.70;101382.91;5038771;28;66242;-33
2024/02/13 00:26:34;;;;;;;5.45;3.85;;;;;;;30.81;63.82;101380.00;5038839;28;70595;-33
2024/02/13 00:29:05;;;;;;;3.63;3.42;;;;;;;30.79;63.55;101384.78;5036661;28;66284;-34
2024/02/13 00:31:36;;;;;;;3.92;3.60;;;;;;;30.78;63.46;101385.81;5039171;28;70012;-34
2024/02/13 00:34:27;;;;;;;4.50;4.00;;;;;;;30.80;63.64;101394.59;5028418;28;65419;-34
2024/02/13 00:37:01;;;;;;;4.30;3.80;;;;;;;30.78;63.90;101391.22;5038516;28;69530;-32
2024/02/13 00:39:32;;;;;;;4.25;3.85;;;;;;;30.78;63.84;101391.22;5038223;28;66902;-33
2024/02/13 00:42:03;;;;;;;4.93;4.18;;;;;;;30.78;63.76;101396.66;5036289;28;70709;-33
2024/02/13 00:44:36;;;;;;;5.20;4.05;;;;;;;30.78;63.96;101396.66;5020191;28;65619;-34
2024/02/13 00:47:08;;;;;;;5.10;4.30;;;;;;;30.73;63.21;101398.13;5038476;28;70496;-34
2024/02/13 00:49:38;;;;;;;4.32;4.03;;;;;;;30.79;63.66;101409.16;5038357;28;67496;-34
2024/02/13 00:52:09;;;;;;;4.90;4.50;;;;;;;30.78;63.46;101408.31;5053498;28;69438;-34
2024/02/13 00:54:39;;;;;;;4.70;4.40;;;;;;;30.79;63.91;101409.16;5038344;28;66400;-34
2024/02/13 00:57:10;;;;;;;4.53;4.22;;;;;;;30.78;63.45;101419.13;5034205;28;70319;-34
2024/02/13 00:59:42;;;;;;;5.70;5.10;;;;;;;30.79;63.52;101409.16;5035838;28;65970;-33
2024/02/13 01:02:15;;;;;;;;;;;;;;;30.75;63.87;101424.16;5034653;28;69775;-34
2024/02/13 01:04:47;;;;;;;7.25;4.70;;;;;;;30.80;63.32;101421.69;5050308;28;66380;-35
2024/02/13 01:07:18;;;;;;;9.70;5.00;;;;;;;30.79;63.45;101426.25;5033719;28;70309;-33
2024/02/13 01:09:48;;;;;;;5.40;4.90;;;;;;;30.80;63.71;101425.22;5030469;28;65535;-34
2024/02/13 01:12:19;;;;;;;6.18;5.55;;;;;;;30.80;63.26;101438.78;5035630;28;69501;-34
2024/02/13 01:14:49;;;;;;;5.10;4.70;;;;;;;30.79;63.22;101436.25;5035380;28;66348;-34
2024/02/13 01:17:20;;;;;;;5.82;5.28;;;;;;;30.70;63.05;101417.50;5032334;28;69695;-34
2024/02/13 01:19:50;;;;;;;5.32;4.88;;;;;;;30.78;63.47;101434.56;5035478;28;65399;-33
2024/02/13 01:22:21;;;;;;;5.68;5.18;;;;;;;30.81;63.72;101442.31;5034412;28;70565;-34
2024/02/13 01:24:52;;;;;;;5.25;4.78;;;;;;;30.80;63.34;101440.66;5034363;28;65379;-34
2024/02/13 01:27:23;;;;;;;5.75;5.32;;;;;;;30.84;63.43;101450.00;5034734;28;70347;-34
2024/02/13 01:29:54;;;;;;;5.57;5.07;;;;;;;30.84;63.45;101444.59;5034367;28;65606;-33
2024/02/13 01:32:27;;;;;;;4.97;4.67;;;;;;;30.81;63.40;101447.72;5034198;28;70392;-33
2024/02/13 01:35:04;;;;;;;6.10;5.25;;;;;;;30.81;63.25;101445.00;5033399;28;65564;-35
2024/02/13 01:37:36;;;;;;;5.65;5.13;;;;;;;30.85;63.73;101451.69;5031658;28;70554;-33
2024/02/13 01:40:07;;;;;;;6.03;5.22;;;;;;;30.88;63.29;101456.69;5034454;28;66477;-33
2024/02/13 01:42:38;;;;;;;5.07;4.67;;;;;;;30.88;63.54;101468.38;5035168;28;70277;-33
2024/02/13 01:45:13;;;;;;;5.65;5.15;;;;;;;30.86;63.48;101458.78;5033687;28;66155;-34
2024/02/13 01:47:56;;;;;;;5.53;5.13;;;;;;;30.91;63.64;101461.69;5032953;28;69042;-34
2024/02/13 01:50:27;;;;;;;5.63;5.20;;;;;;;30.92;63.94;101461.50;5025782;28;66204;-34
2024/02/13 01:52:58;;;;;;;5.43;4.78;;;;;;;30.91;63.48;101464.41;5038403;28;70607;-34
2024/02/13 01:55:29;;;;;;;5.82;5.20;;;;;;;30.93;63.74;101462.34;5034927;28;65309;-36
2024/02/13 01:58:02;;;;;;;6.22;5.70;;;;;;;30.90;63.64;101449.22;5039076;28;69898;-33
2024/02/13 02:00:33;;;;;;;6.25;5.40;;;;;;;30.93;63.57;101459.63;5041031;28;65713;-36
2024/02/13 02:03:05;;;;;;;5.88;5.47;;;;;;;30.96;63.96;101464.63;5042207;28;69148;-34
2024/02/13 02:05:36;;;;;;;6.85;5.32;;;;;;;30.97;63.84;101466.28;5036123;28;66360;-34
2024/02/13 02:08:19;;;;;;;8.57;4.78;;;;;;;30.96;63.90;101466.50;5040522;28;69908;-34
2024/02/13 02:10:49;;;;;;;6.00;5.40;;;;;;;31.01;63.99;101467.56;5038560;28;66173;-35
2024/02/13 02:13:20;;;;;;;5.93;5.43;;;;;;;31.01;63.73;101478.41;5040954;28;70429;-34
2024/02/13 02:15:58;;;;;;;5.70;5.20;;;;;;;31.00;63.51;101479.41;5033896;28;66584;-34
2024/02/13 02:18:30;;;;;;;7.13;5.55;;;;;;;30.91;63.80;101461.69;5040566;28;70654;-34
2024/02/13 02:21:01;;;;;;;5.80;4.85;;;;;;;31.02;63.60;101480.06;5041413;28;65681;-36
2024/02/13 02:23:34;;;;;;;4.97;4.57;;;;;;;31.00;63.62;101474.00;5021986;28;70889;-35
2024/02/13 02:26:13;;;;;;;5.53;4.97;;;;;;;31.05;63.46;101485.06;5040427;28;66118;-34
2024/02/13 02:29:02;;;;;;;5.25;4.85;;;;;;;31.08;63.83;101484.63;5039191;28;70746;-34
2024/02/13 02:31:32;;;;;;;5.20;4.88;;;;;;;31.04;63.69;101472.56;5041042;28;65975;-34
2024/02/13 02:34:04;;;;;;;5.88;5.32;;;;;;;31.10;63.71;101477.16;5040242;28;69920;-36
2024/02/13 02:36:34;;;;;;;7.07;5.35;;;;;;;31.12;63.94;101480.50;5027375;28;66862;-35
2024/02/13 02:39:05;;;;;;;8.35;4.97;;;;;;;31.14;63.65;101467.53;5040390;28;70823;-34
2024/02/13 02:41:35;;;;;;;4.72;4.38;;;;;;;31.16;63.26;101472.75;5040767;28;66303;-35
2024/02/13 02:44:08;;;;;;;5.18;4.78;;;;;;;31.15;63.52;101468.41;5037553;28;69589;-34
2024/02/13 02:46:40;;;;;;;5.55;5.05;;;;;;;31.15;63.76;101469.22;5040956;28;66654;-35
2024/02/13 02:49:10;;;;;;;5.53;4.50;;;;;;;31.22;63.50;101479.22;5039598;28;70426;-34
2024/02/13 02:51:41;;;;;;;5.65;5.20;;;;;;;31.23;63.33;101476.31;5039928;28;66969;-36
2024/02/13 02:54:13;;;;;;;5.90;5.40;;;;;;;31.25;63.39;101470.69;5036017;28;70320;-35
2024/02/13 02:56:45;;;;;;;5.32;4.43;;;;;;;31.27;63.30;101468.59;5032206;28;66427;-33
2024/02/13 02:59:16;;;;;;;5.88;5.20;;;;;;;31.29;63.04;101463.81;5028625;28;70025;-34
2024/02/13 03:01:46;;;;;;;6.57;4.65;;;;;;;31.28;63.08;101464.84;5040393;28;66918;-34
2024/02/13 03:04:18;;;;;;;6.10;4.85;;;;;;;31.33;62.97;101465.03;5036994;28;68831;-35
2024/02/13 03:06:48;;;;;;;5.82;5.18;;;;;;;31.32;63.30;101457.97;5040383;28;65596;-34
2024/02/13 03:09:19;;;;;;;5.63;4.85;;;;;;;31.34;63.20;101469.41;5032230;28;70512;-35
2024/02/13 03:11:50;;;;;;;7.20;5.23;;;;;;;31.38;63.09;101476.13;5037608;28;65712;-35
2024/02/13 03:14:21;;;;;;;4.72;4.38;;;;;;;31.41;62.98;101462.16;5038073;28;69617;-35
2024/02/13 03:16:51;;;;;;;6.05;5.45;;;;;;;31.44;62.77;101467.16;5037763;28;65808;-35
2024/02/13 03:19:22;;;;;;;5.45;5.05;;;;;;;31.45;62.87;101454.44;5037221;28;70298;-37
2024/02/13 03:21:53;;;;;;;6.00;5.50;;;;;;;31.47;62.92;101450.47;5039395;28;66082;-36
2024/02/13 03:24:23;;;;;;;6.18;5.65;;;;;;;31.45;63.09;101440.88;5038409;28;70752;-35
2024/02/13 03:26:55;;;;;;;5.75;5.28;;;;;;;31.52;62.60;101447.13;5037512;28;66034;-35
2024/02/13 03:29:45;;;;;;;8.40;6.10;;;;;;;31.54;62.79;101443.16;5038260;28;70263;-35
2024/02/13 03:32:16;;;;;;;5.60;5.18;;;;;;;31.56;62.73;101437.50;5035360;28;66563;-35
2024/02/13 03:34:47;;;;;;;6.53;5.93;;;;;;;31.57;62.95;101433.78;5039466;28;70393;-35
2024/02/13 03:37:18;;;;;;;6.47;5.97;;;;;;;31.59;62.69;101432.53;5039169;28;65863;-34
2024/02/13 03:39:49;;;;;;;6.55;6.03;;;;;;;31.62;62.26;101420.38;5034939;28;70155;-34
2024/02/13 03:42:20;;;;;;;5.85;5.38;;;;;;;31.65;62.67;101429.97;5039315;28;65457;-34
2024/02/13 03:44:50;;;;;;;6.60;5.32;;;;;;;31.66;62.50;101420.81;5036640;28;70140;-35
2024/02/13 03:47:21;;;;;;;6.32;5.63;;;;;;;31.68;62.45;101410.56;5037883;28;66687;-35
2024/02/13 03:49:52;;;;;;;5.97;5.57;;;;;;;31.71;62.76;101423.72;5037023;28;69208;-34
2024/02/13 03:52:23;;;;;;;6.25;5.75;;;;;;;31.74;62.85;101412.44;5037587;28;65940;-33
2024/02/13 03:54:53;;;;;;;6.83;5.63;;;;;;;31.74;62.45;101410.56;5038152;28;70586;-34
2024/02/13 03:57:30;;;;;;;8.25;5.65;;;;;;;31.79;62.08;101409.94;5038346;28;66409;-33
2024/02/13 04:00:01;;;;;;;6.70;6.20;;;;;;;31.80;62.04;101396.13;5034270;28;69432;-34
2024/02/13 04:02:34;;;;;;;6.38;5.97;;;;;;;31.83;62.31;101400.31;5037042;28;65891;-34
2024/02/13 04:05:05;;;;;;;5.85;5.35;;;;;;;31.84;62.47;101391.09;5038692;28;69061;-35
2024/02/13 04:07:36;;;;;;;6.75;5.85;;;;;;;31.88;62.46;101389.66;5036294;28;64690;-34
2024/02/13 04:10:07;;;;;;;6.47;5.75;;;;;;;31.91;62.33;101385.66;5038568;28;70966;-34
2024/02/13 04:12:50;;;;;;;6.20;5.60;;;;;;;31.89;62.22;101372.31;5029009;28;65390;-33
2024/02/13 04:15:22;;;;;;;6.90;6.20;;;;;;;31.94;62.25;101358.97;5038497;28;70401;-35
2024/02/13 04:17:57;;;;;;;6.63;5.93;;;;;;;31.95;62.29;101355.19;5038292;28;65498;-33
2024/02/13 04:20:32;;;;;;;8.55;5.82;;;;;;;31.83;62.23;101333.31;5036337;28;43242;-33
2024/02/13 04:23:03;;;;;;;6.93;5.57;;;;;;;32.00;62.07;101347.25;5038586;28;65684;-33
2024/02/13 04:25:35;;;;;;;11.17;6.37;;;;;;;31.99;62.00;101342.88;5038180;28;70277;-34
2024/02/13 04:28:07;;;;;;;6.20;5.70;;;;;;;32.05;62.22;101336.56;5037331;28;66344;-33
2024/02/13 04:30:40;;;;;;;;;;;;;;;32.01;62.93;101338.06;5038579;28;69301;-34
2024/02/13 04:33:12;;;;;;;6.53;5.95;;;;;;;32.12;62.89;101341.13;5036339;28;66213;-33
2024/02/13 04:35:43;;;;;;;6.68;6.03;;;;;;;32.11;63.11;101320.47;5038516;28;70583;-36
2024/02/13 04:38:14;;;;;;;7.15;6.53;;;;;;;32.16;62.97;101326.91;5037842;28;66424;-34
2024/02/13 04:40:45;;;;;;;7.35;6.85;;;;;;;32.17;62.93;101306.03;5034337;28;70235;-34
2024/02/13 04:43:28;;;;;;;8.10;6.35;;;;;;;32.20;62.84;101309.13;5035805;28;65137;-38
2024/02/13 04:46:02;;;;;;;7.07;6.47;;;;;;;32.21;62.52;101309.97;5036583;28;70274;-35
2024/02/13 04:48:33;;;;;;;6.80;6.30;;;;;;;32.23;62.22;101292.41;5036157;28;66707;-34
2024/02/13 04:51:08;;;;;;;7.80;7.07;;;;;;;32.29;62.38;101290.72;5038712;28;70280;-34
2024/02/13 04:53:39;;;;;;;6.63;6.13;;;;;;;32.30;62.07;101288.81;5036621;28;65820;-33
2024/02/13 04:56:10;;;;;;;7.88;6.60;;;;;;;32.32;62.14;101283.97;5038808;28;71209;-33
2024/02/13 04:58:41;;;;;;;7.50;6.80;;;;;;;32.36;62.09;101275.19;5038668;28;66292;-34
2024/02/13 05:01:14;;;;;;;6.53;5.93;;;;;;;32.36;62.19;101275.19;5037312;28;69901;-33
2024/02/13 05:09:07;;;;;;;7.47;6.47;;;;;;;32.43;61.80;101265.09;5038390;28;66819;-34
2024/02/13 05:11:40;;;;;;;7.38;6.78;;;;;;;32.44;61.75;101253.19;5036220;28;70395;-33
2024/02/13 05:14:11;;;;;;;6.82;6.22;;;;;;;32.48;61.75;101250.88;5035150;28;66374;-34
2024/02/13 05:16:43;;;;;;;6.05;5.65;;;;;;;32.51;61.67;101244.16;5038625;28;70533;-33
2024/02/13 05:19:15;;;;;;;6.53;5.97;;;;;;;32.53;61.65;101258.38;5036526;28;66294;-34
2024/02/13 05:21:46;;;;;;;8.52;6.25;;;;;;;32.57;61.61;101254.13;5038903;28;69486;-34
2024/02/13 05:24:16;;;;;;;6.55;5.95;;;;;;;32.57;61.49;101249.56;5034167;28;66177;-33
2024/02/13 05:26:47;;;;;;;5.78;5.07;;;;;;;32.60;61.69;101232.81;5037447;28;70054;-34
2024/02/13 05:29:18;;;;;;;5.85;5.35;;;;;;;32.62;61.59;101225.25;5051532;28;66533;-33
2024/02/13 05:31:51;;;;;;;5.77;5.27;;;;;;;32.66;61.37;101220.22;5037630;28;68925;-33
2024/02/13 05:34:21;;;;;;;5.95;5.45;;;;;;;32.65;61.35;101224.84;5036110;28;66261;-34
2024/02/13 05:36:53;;;;;;;5.43;5.03;;;;;;;32.66;61.25;101212.06;5040766;28;69061;-34
2024/02/13 05:39:28;;;;;;;5.53;5.05;;;;;;;32.71;60.79;101204.91;5042068;28;65236;-33
2024/02/13 05:41:59;;;;;;;5.97;5.47;;;;;;;32.68;61.20;101196.34;5040721;28;69932;-35
2024/02/13 05:44:29;;;;;;;5.85;5.30;;;;;;;32.76;60.97;101198.78;5040548;28;66242;-35
2024/02/13 05:47:02;;;;;;;5.32;4.93;;;;;;;32.77;60.95;101189.59;5041610;28;70049;-32
2024/02/13 05:49:36;;;;;;;5.90;5.38;;;;;;;32.81;60.84;101179.94;5040746;28;66322;-33
2024/02/13 05:52:06;;;;;;;6.15;5.03;;;;;;;32.82;60.88;101169.88;5042262;28;70393;-34
2024/02/13 05:54:37;;;;;;;5.45;4.97;;;;;;;32.86;60.35;101171.94;5038642;28;65546;-34
2024/02/13 05:57:13;;;;;;;7.05;4.63;;;;;;;32.85;60.39;101164.84;5041287;28;69158;-34
2024/02/13 05:59:43;;;;;;;5.00;4.60;;;;;;;32.90;60.33;101161.44;5041778;28;66910;-33
2024/02/13 06:02:14;;;;;;;4.93;4.47;;;;;;;32.92;60.31;101148.44;5037131;28;70450;-33
2024/02/13 06:04:45;;;;;;;5.53;5.03;;;;;;;32.93;60.17;101145.53;5040807;28;66550;-34
2024/02/13 06:07:18;;;;;;;5.80;4.43;;;;;;;32.94;60.25;101146.34;5037757;28;70011;-35
2024/02/13 06:09:49;;;;;;;5.13;4.82;;;;;;;32.96;59.95;101138.81;5045511;28;65713;-33
2024/02/13 06:12:22;;;;;;;5.37;4.97;;;;;;;33.00;60.02;101139.19;5041202;28;69510;-34
2024/02/13 06:14:52;;;;;;;4.80;4.30;;;;;;;33.02;60.20;101126.22;5040089;28;66345;-33
2024/02/13 06:17:24;;;;;;;4.97;4.53;;;;;;;33.06;59.74;101121.97;5042134;28;70619;-34
2024/02/13 06:20:01;;;;;;;4.78;4.45;;;;;;;33.06;59.88;101117.34;5041011;28;66449;-33
2024/02/13 06:22:36;;;;;;;5.25;4.47;;;;;;;33.09;59.62;101105.19;5039952;28;70486;-34
2024/02/13 06:25:11;;;;;;;4.97;4.50;;;;;;;33.12;59.56;101110.16;5041306;28;65689;-36
2024/02/13 06:27:43;;;;;;;4.05;3.75;;;;;;;33.15;59.83;101109.72;5041017;28;70706;-34
2024/02/13 06:30:14;;;;;;;4.53;4.17;;;;;;;33.19;59.83;101101.94;5040901;28;67802;-33
2024/02/13 06:32:51;;;;;;;4.65;3.80;;;;;;;33.20;59.12;101096.25;5041346;28;70164;-34
2024/02/13 06:35:22;;;;;;;4.35;4.10;;;;;;;33.22;59.43;101088.72;5039804;28;65839;-36
2024/02/13 06:38:06;;;;;;;4.88;4.47;;;;;;;33.25;59.09;101087.41;5041079;28;69992;-34
2024/02/13 06:40:38;;;;;;;4.53;4.18;;;;;;;33.28;58.96;101071.47;5037325;28;65955;-34
2024/02/13 06:43:08;;;;;;;;;;;;;;;33.22;58.22;101072.41;5041449;28;70568;-34
2024/02/13 06:45:39;;;;;;;4.25;3.88;;;;;;;33.35;59.08;101072.19;5040479;28;66274;-35
2024/02/13 06:48:10;;;;;;;4.13;3.83;;;;;;;33.37;58.94;101061.91;5037705;28;69758;-33
2024/02/13 06:50:42;;;;;;;4.10;3.78;;;;;;;33.38;58.80;101047.25;5024625;28;65436;-34
2024/02/13 06:53:13;;;;;;;4.30;3.65;;;;;;;33.40;58.77;101051.63;5040636;28;70007;-34
2024/02/13 06:55:44;;;;;;;3.72;3.47;;;;;;;33.40;58.53;101048.91;5038891;28;66509;-35
2024/02/13 06:58:17;;;;;;;3.50;3.30;;;;;;;33.43;58.48;101032.13;5040969;28;70148;-34
2024/02/13 07:00:49;;;;;;;4.32;3.92;;;;;;;33.51;58.33;101039.94;5040823;28;66762;-34
2024/02/13 07:03:21;;;;;;;4.38;3.60;;;;;;;33.55;58.48;101033.00;5037129;28;70080;-35
2024/02/13 07:05:51;;;;;;;;;;;;;;;33.50;57.78;101030.13;5040709;28;65487;-33
2024/02/13 07:08:25;;;;;;;3.22;3.03;;;;;;;33.62;58.13;101024.72;5039686;28;68682;-35
2024/02/13 07:10:58;;;;;;;3.42;3.22;;;;;;;33.63;58.21;101024.50;5039593;28;66355;-35
2024/02/13 07:13:41;;;;;;;4.13;3.83;;;;;;;33.68;58.53;101021.06;5039476;28;70475;-33
2024/02/13 07:16:12;;;;;;;3.30;3.00;;;;;;;33.68;58.11;101010.19;5039970;28;65308;-35
2024/02/13 07:18:42;;;;;;;3.60;3.30;;;;;;;33.65;58.18;101000.59;5029140;28;70413;-36
2024/02/13 07:21:13;;;;;;;3.60;3.37;;;;;;;33.75;58.04;101005.47;5040111;28;66394;-33
2024/02/13 07:23:44;;;;;;;3.70;3.40;;;;;;;33.81;57.92;100999.88;5040455;28;69630;-35
2024/02/13 07:26:21;;;;;;;3.83;3.53;;;;;;;33.85;57.82;100994.81;5043529;28;65328;-35
2024/02/13 07:28:52;;;;;;;3.25;3.00;;;;;;;33.90;57.68;100992.19;5037256;28;70086;-36
2024/02/13 07:31:23;;;;;;;4.50;3.58;;;;;;;33.95;57.54;100986.03;5040569;28;65559;-35
2024/02/13 07:33:54;;;;;;;3.97;3.35;;;;;;;34.01;57.82;100985.06;5041021;28;69123;-36
2024/02/13 07:36:25;;;;;;;4.23;3.90;;;;;;;34.04;57.47;100990.03;5036943;28;67677;-35
2024/02/13 07:39:00;;;;;;;5.03;3.78;;;;;;;34.10;57.44;100985.56;5039566;28;69280;-34
2024/02/13 07:41:35;;;;;;;4.18;3.72;;;;;;;34.10;57.79;100975.53;5034898;28;65361;-34
2024/02/13 07:44:06;;;;;;;4.07;3.80;;;;;;;34.18;57.81;100977.03;5039540;28;70080;-34
2024/02/13 07:46:38;;;;;;;6.78;4.35;;;;;;;34.23;57.41;100968.97;5038812;28;66636;-36
2024/02/13 07:49:09;;;;;;;4.68;4.28;;;;;;;34.28;57.11;100960.91;5036847;28;70097;-34
2024/02/13 07:51:39;;;;;;;;;;;;;;;34.29;56.92;100967.16;5039934;28;66167;-36
2024/02/13 07:54:14;;;;;;;3.88;3.58;;;;;;;34.41;57.36;100971.50;5039968;28;70327;-35
2024/02/13 07:56:48;;;;;;;4.80;4.40;;;;;;;34.44;57.68;100972.94;5038075;28;66343;-35
2024/02/13 07:59:20;;;;;;;4.35;4.05;;;;;;;34.51;57.54;100972.78;5038934;28;70169;-35
2024/02/13 08:01:51;;;;;;;4.33;3.93;;;;;;;34.57;57.03;100974.56;5040171;28;65784;-36
2024/02/13 08:04:22;;;;;;;4.70;4.40;;;;;;;34.62;57.25;100972.75;5037418;28;71003;-33
2024/02/13 08:06:56;;;;;;;4.27;3.97;;;;;;;34.65;57.42;100968.72;5040188;28;66644;-34
2024/02/13 08:09:26;;;;;;;4.55;4.00;;;;;;;34.74;56.85;100964.50;5039174;28;70709;-33
2024/02/13 08:11:57;;;;;;;7.85;4.00;;;;;;;34.80;56.86;100957.25;5039658;28;66299;-35
2024/02/13 08:14:28;;;;;;;4.90;4.40;;;;;;;34.86;57.17;100959.03;5039893;28;70115;-35
2024/02/13 08:17:00;;;;;;;6.03;4.97;;;;;;;34.94;57.11;100964.06;5037950;28;66813;-34
2024/02/13 08:19:31;;;;;;;10.27;6.75;;;;;;;35.00;56.45;100952.19;5027924;28;70568;-35
2024/02/13 08:22:02;;;;;;;8.33;7.00;;;;;;;35.07;56.43;100958.31;5038342;28;64528;-35
2024/02/13 08:24:34;;;;;;;13.98;7.70;;;;;;;35.16;56.37;100957.91;5032881;28;70045;-35
2024/02/13 08:27:05;;;;;;;8.20;7.40;;;;;;;35.22;56.95;100955.03;5035929;28;65444;-37
2024/02/13 08:29:37;;;;;;;8.68;7.25;;;;;;;35.29;56.63;100961.13;5037005;28;70583;-35
2024/02/13 08:32:08;;;;;;;12.50;7.22;;;;;;;35.36;56.41;100955.50;5036000;28;65806;-34
2024/02/13 08:34:41;;;;;;;6.57;6.07;;;;;;;35.44;56.83;100946.91;5033885;28;69832;-34
2024/02/13 08:37:14;;;;;;;9.00;6.50;;;;;;;35.50;56.46;100956.81;5034713;28;66706;-35
2024/02/13 08:39:52;;;;;;;5.85;5.35;;;;;;;35.53;56.47;100956.31;5035396;28;70337;-34
2024/02/13 08:42:26;;;;;;;5.85;5.10;;;;;;;35.62;56.33;100958.66;5037608;28;65555;-34
2024/02/13 08:44:59;;;;;;;5.55;5.03;;;;;;;35.68;55.76;100957.63;5034909;28;68791;-36
2024/02/13 08:47:35;;;;;;;5.18;4.63;;;;;;;35.74;55.69;100956.63;5035411;28;66686;-34
2024/02/13 08:50:07;;;;;;;5.55;4.80;;;;;;;35.79;55.58;100953.97;5038348;28;70143;-34
2024/02/13 08:52:39;;;;;;;6.00;4.45;;;;;;;35.83;55.62;100949.66;5035869;28;66651;-35
2024/02/13 08:55:13;;;;;;;4.97;4.47;;;;;;;35.63;55.57;100900.25;5038369;28;70205;-35
2024/02/13 08:57:45;;;;;;;5.00;4.68;;;;;;;35.98;55.59;100960.75;5035571;28;66100;-36
2024/02/13 09:00:16;;;;;;;5.00;4.43;;;;;;;36.02;55.79;100953.75;5037860;28;70487;-34
2024/02/13 09:03:05;;;;;;;7.03;4.40;;;;;;;36.06;55.60;100947.78;5033817;28;65547;-35
2024/02/13 09:05:37;;;;;;;5.30;4.85;;;;;;;36.16;55.38;100953.38;5039322;28;69770;-36
2024/02/13 09:08:08;;;;;;;4.78;4.47;;;;;;;36.20;56.00;100955.34;5043506;28;65438;-36
2024/02/13 09:10:39;;;;;;;8.93;4.13;;;;;;;36.28;55.55;100950.53;5042433;28;69228;-36
2024/02/13 09:13:09;;;;;;;5.80;4.53;;;;;;;36.32;55.75;100947.00;5043794;28;66331;-35
2024/02/13 09:15:40;;;;;;;5.83;5.33;;;;;;;36.37;55.67;100944.31;5047826;28;69036;-35
2024/02/13 09:18:13;;;;;;;5.10;4.70;;;;;;;36.45;55.61;100952.06;5042457;28;66282;-36
2024/02/13 09:20:44;;;;;;;5.43;4.95;;;;;;;36.50;55.02;100953.19;5042248;28;69922;-35
2024/02/13 09:23:18;;;;;;;6.60;4.63;;;;;;;36.56;55.13;100950.31;5049416;28;65605;-35
2024/02/13 09:25:51;;;;;;;6.60;5.40;;;;;;;36.63;55.30;100952.81;5041878;28;70427;-34
2024/02/13 09:28:23;;;;;;;4.82;4.43;;;;;;;36.70;55.23;100963.56;5043139;28;66371;-36
2024/02/13 09:30:54;;;;;;;5.40;4.70;;;;;;;36.74;55.57;100965.50;5040416;28;69614;-41
2024/02/13 09:33:25;;;;;;;4.93;4.60;;;;;;;36.77;54.83;100959.50;5045779;28;65744;-39
2024/02/13 09:35:57;;;;;;;4.80;4.40;;;;;;;36.80;54.61;100969.09;5045224;28;70255;-35
2024/02/13 09:38:28;;;;;;;4.90;4.50;;;;;;;36.82;55.12;100973.22;5041899;28;65487;-36
2024/02/13 09:41:04;;;;;;;7.80;4.07;;;;;;;36.85;55.00;100971.88;5046582;28;70547;-36
2024/02/13 09:43:35;;;;;;;5.07;4.50;;;;;;;36.90;54.87;100978.22;5046571;28;66591;-35
2024/02/13 09:46:10;;;;;;;4.75;4.35;;;;;;;36.92;54.75;100991.66;5045634;28;70243;-35
2024/02/13 09:48:53;;;;;;;4.07;3.78;;;;;;;36.83;55.17;100958.50;5045877;28;65020;-35
2024/02/13 09:51:26;;;;;;;4.95;3.42;;;;;;;37.00;55.12;100987.59;5031421;28;69991;-35
2024/02/13 09:53:58;;;;;;;4.63;4.22;;;;;;;37.02;54.64;100990.94;5044159;28;66078;-36
2024/02/13 09:56:32;;;;;;;7.10;3.67;;;;;;;37.04;54.15;100988.78;5043803;28;70444;-36
2024/02/13 09:59:04;;;;;;;3.90;3.60;;;;;;;37.05;54.31;100983.03;5043831;28;65726;-36
2024/02/13 10:01:35;;;;;;;4.40;3.40;;;;;;;37.15;54.39;100997.88;5043533;28;69617;-35
2024/02/13 10:04:07;;;;;;;3.90;3.60;;;;;;;37.13;54.32;100995.41;5038924;28;66558;-35
2024/02/13 10:06:37;;;;;;;;;;;;;;;37.10;54.33;100995.94;5040034;28;70047;-37
2024/02/13 10:09:11;;;;;;;3.47;3.15;;;;;;;37.19;54.81;100988.88;5040831;28;67099;-35
2024/02/13 10:11:42;;;;;;;4.28;3.65;;;;;;;37.23;54.35;101000.97;5041207;28;70410;-36
2024/02/13 10:14:21;;;;;;;4.50;3.47;;;;;;;37.20;54.33;101000.69;5044097;28;66544;-37
2024/02/13 10:16:56;;;;;;;3.83;3.33;;;;;;;37.21;54.31;101007.78;5042479;28;70818;-36
2024/02/13 10:19:30;;;;;;;3.45;3.15;;;;;;;37.04;54.57;100980.56;5040055;28;65806;-35
2024/02/13 10:22:09;;;;;;;2.90;2.70;;;;;;;37.21;54.04;101003.13;5029390;28;69131;-37
2024/02/13 10:24:47;;;;;;;4.57;3.08;;;;;;;37.19;54.09;101021.69;5036544;28;66713;-34
2024/02/13 10:27:18;;;;;;;3.42;2.42;;;;;;;37.24;54.66;101010.00;5038049;28;70400;-36
2024/02/13 10:29:49;;;;;;;3.05;2.67;;;;;;;37.21;54.35;101014.06;5036254;27;65806;-35
2024/02/13 10:32:20;;;;;;;4.38;2.80;;;;;;;36.94;54.42;100980.44;5037709;28;70163;-34
2024/02/13 10:34:52;;;;;;;4.03;2.88;;;;;;;37.18;54.67;101022.81;5036504;28;66029;-34
2024/02/13 10:37:26;;;;;;;3.65;2.80;;;;;;;37.15;54.32;101023.31;5034623;28;69133;-35
2024/02/13 10:40:02;;;;;;;4.90;2.92;;;;;;;37.01;54.45;101002.94;5034745;28;65664;-34
2024/02/13 10:42:38;;;;;;;9.93;2.78;;;;;;;37.12;54.73;101029.31;5035139;28;70292;-34
2024/02/13 10:45:11;;;;;;;4.40;2.35;;;;;;;37.11;54.08;101035.84;5034904;28;65783;-35
2024/02/13 10:47:54;;;;;;;14.73;4.40;;;;;;;36.89;54.18;101003.94;5034894;28;70470;-35
2024/02/13 10:50:25;;;;;;;8.90;4.30;;;;;;;37.09;53.95;101043.50;5039121;28;67065;-35
2024/02/13 10:52:59;;;;;;;11.82;4.75;;;;;;;36.87;54.06;101014.28;5034636;28;70284;-35
2024/02/13 10:55:36;;;;;;;20.48;4.15;;;;;;;36.85;54.14;101015.63;5034530;28;65836;-35
2024/02/13 10:58:13;;;;;;;10.95;4.03;;;;;;;36.98;54.15;101044.47;5035233;28;69559;-34
2024/02/13 11:00:58;;;;;;;12.05;3.70;;;;;;;36.95;54.13;101047.72;5031721;28;65692;-34
2024/02/13 11:03:30;;;;;;;5.55;4.00;;;;;;;36.90;54.51;101052.03;5034664;28;70159;-34
2024/02/13 11:06:01;;;;;;;5.22;3.50;;;;;;;36.89;53.91;101063.25;5037965;28;65350;-35
2024/02/13 11:08:34;;;;;;;5.45;3.72;;;;;;;36.81;54.29;101056.31;5033205;28;69312;-34
2024/02/13 11:11:19;;;;;;;6.40;3.60;;;;;;;36.79;53.95;101069.41;5038727;28;64994;-34
2024/02/13 11:13:50;;;;;;;10.02;3.30;;;;;;;36.77;54.24;101051.63;5036088;28;71064;-34
2024/02/13 11:16:22;;;;;;;8.33;3.20;;;;;;;36.76;54.52;101072.66;5038280;28;66677;-34
2024/02/13 11:19:12;;;;;;;5.05;2.85;;;;;;;36.71;54.64;101075.34;5034132;28;69900;-34
2024/02/13 11:21:51;;;;;;;4.35;3.45;;;;;;;36.50;54.69;101046.94;5039044;28;65873;-33
2024/02/13 11:24:53;;;;;;;4.95;3.45;;;;;;;36.61;54.60;101075.22;5037104;28;69497;-35
2024/02/13 11:27:26;;;;;;;5.53;3.47;;;;;;;36.59;54.85;101071.94;5039046;28;66844;-35
2024/02/13 11:30:07;;;;;;;4.35;3.95;;;;;;;36.57;55.21;101077.63;5037277;28;69742;-34
2024/02/13 11:32:38;;;;;;;7.43;3.40;;;;;;;36.51;55.15;101075.06;5037458;28;65703;-34
2024/02/13 11:35:17;;;;;;;4.10;3.70;;;;;;;36.46;54.63;101082.13;5035289;28;70271;-34
2024/02/13 11:37:51;;;;;;;4.73;3.83;;;;;;;36.41;55.34;101087.53;5039637;28;64655;-35
2024/02/13 11:40:27;;;;;;;6.55;4.05;;;;;;;36.42;55.54;101093.81;5037978;28;70642;-35
2024/02/13 11:43:20;;;;;;;5.32;3.70;;;;;;;36.32;54.84;101094.50;5039112;28;65995;-34
2024/02/13 11:45:52;;;;;;;7.15;4.05;;;;;;;36.29;55.07;101100.47;5037110;28;69165;-34
2024/02/13 11:48:28;;;;;;;4.57;4.07;;;;;;;36.19;55.21;101090.25;5038447;28;66001;-34
2024/02/13 11:51:05;;;;;;;9.80;4.45;;;;;;;36.18;55.82;101109.59;5036876;28;70462;-35
2024/02/13 11:53:37;;;;;;;4.47;3.90;;;;;;;36.13;55.99;101104.88;5038893;28;68022;-35
2024/02/13 11:56:09;;;;;;;5.70;3.70;;;;;;;36.08;55.83;101103.97;5039276;28;69400;-36
2024/02/13 11:58:42;;;;;;;4.78;4.30;;;;;;;35.78;55.70;101058.75;5037668;28;65464;-36